createdAt,value
2018-11-10T00:00:23.628Z,57.63
2018-11-10T00:02:53.226Z,45.40
2018-11-10T00:05:23.428Z,54.20
2018-11-10T00:07:52.685Z,52.83
2018-11-10T00:10:22.383Z,52.57
2018-11-10T00:12:51.543Z,52.37
2018-11-10T00:15:20.792Z,58.13
2018-11-10T00:17:50.026Z,60.30
2018-11-10T00:20:20.208Z,58.87
2018-11-10T00:22:49.391Z,52.57
2018-11-10T00:25:18.995Z,47.58
2018-11-10T00:27:48.182Z,54.50
2018-11-10T00:30:19.429Z,51.60
2018-11-10T00:32:48.665Z,59.17
2018-11-10T00:35:19.335Z,57.80
2018-11-10T00:37:48.549Z,54.77
2018-11-10T00:40:18.833Z,55.90
2018-11-10T00:42:48.075Z,54.07
2018-11-10T00:45:18.556Z,58.00
2018-11-10T00:47:49.074Z,61.48
2018-11-10T00:50:19.455Z,58.03
2018-11-10T00:52:48.658Z,58.37
2018-11-10T00:55:18.810Z,57.62
2018-11-10T00:57:48.041Z,58.60
2018-11-10T01:00:18.143Z,63.67
2018-11-10T01:02:47.349Z,56.30
2018-11-10T01:05:17.612Z,57.80
2018-11-10T01:07:46.854Z,56.03
2018-11-10T01:10:17.893Z,52.73
2018-11-10T01:12:48.170Z,60.33
2018-11-10T01:15:18.535Z,62.00
2018-11-10T01:17:47.696Z,54.17
2018-11-10T01:20:17.957Z,48.67
2018-11-10T01:22:48.143Z,61.23
2018-11-10T01:25:17.863Z,55.83
2018-11-10T01:27:47.037Z,57.08
2018-11-10T01:30:19.613Z,60.80
2018-11-10T01:32:48.827Z,53.47
2018-11-10T01:35:19.509Z,56.87
2018-11-10T01:37:48.683Z,58.47
2018-11-10T01:40:19.073Z,60.47
2018-11-10T01:42:48.291Z,58.73
2018-11-10T01:45:19.082Z,67.07
2018-11-10T01:47:48.314Z,58.87
2018-11-10T01:50:18.426Z,60.70
2018-11-10T01:52:47.587Z,58.10
2018-11-10T01:55:17.756Z,65.30
2018-11-10T01:57:46.943Z,60.53
2018-11-10T02:00:18.660Z,53.40
2018-11-10T02:02:48.584Z,56.30
2018-11-10T02:05:19.303Z,56.15
2018-11-10T02:07:48.503Z,62.70
2018-11-10T02:10:19.208Z,55.20
2018-11-10T02:12:48.389Z,56.70
2018-11-10T02:15:19.558Z,53.65
2018-11-10T02:17:48.764Z,55.43
2018-11-10T02:20:19.384Z,58.30
2018-11-10T02:22:48.618Z,58.70
2018-11-10T02:25:18.591Z,60.83
2018-11-10T02:27:47.764Z,52.80
2018-11-10T02:30:18.057Z,59.07
2018-11-10T02:32:47.279Z,61.73
2018-11-10T02:35:17.673Z,58.15
2018-11-10T02:37:46.859Z,62.53
2018-11-10T02:40:17.144Z,58.20
2018-11-10T02:42:46.328Z,56.50
2018-11-10T02:45:16.334Z,63.20
2018-11-10T02:47:45.791Z,60.57
2018-11-10T02:50:16.000Z,60.30
2018-11-10T02:52:45.230Z,59.80
2018-11-10T02:55:14.462Z,64.83
2018-11-10T02:57:43.680Z,55.83
2018-11-10T03:00:15.472Z,63.33
2018-11-10T03:02:44.631Z,62.60
2018-11-10T03:05:13.851Z,58.35
2018-11-10T03:07:43.020Z,57.60
2018-11-10T03:10:12.837Z,62.83
2018-11-10T03:12:42.263Z,68.33
2018-11-10T03:15:12.440Z,60.70
2018-11-10T03:17:41.614Z,64.30
2018-11-10T03:20:13.147Z,57.10
2018-11-10T03:22:42.683Z,67.07
2018-11-10T03:25:12.101Z,77.16
2018-11-10T03:27:41.509Z,60.43
2018-11-10T03:30:10.898Z,69.53
2018-11-10T03:32:40.072Z,66.17
2018-11-10T03:35:09.953Z,66.87
2018-11-10T03:37:39.481Z,62.90
2018-11-10T03:40:09.667Z,67.27
2018-11-10T03:42:39.135Z,64.60
2018-11-10T03:45:09.500Z,65.90
2018-11-10T03:47:39.688Z,64.43
2018-11-10T03:50:09.472Z,73.23
2018-11-10T03:52:38.665Z,69.37
2018-11-10T03:55:08.495Z,63.43
2018-11-10T03:57:37.705Z,68.07
2018-11-10T04:00:09.867Z,66.17
2018-11-10T04:02:39.468Z,64.77
2018-11-10T04:05:15.325Z,65.23
2018-11-10T04:07:45.484Z,68.07
2018-11-10T04:10:16.585Z,65.87
2018-11-10T04:12:45.788Z,59.23
2018-11-10T04:15:15.900Z,68.43
2018-11-10T04:17:45.089Z,59.20
2018-11-10T04:20:14.651Z,68.60
2018-11-10T04:22:43.894Z,64.23
2018-11-10T04:25:13.135Z,69.17
2018-11-10T04:27:42.384Z,69.77
2018-11-10T04:30:11.851Z,67.40
2018-11-10T04:32:41.109Z,66.37
2018-11-10T04:35:10.343Z,70.53
2018-11-10T04:37:39.575Z,59.30
2018-11-10T04:40:09.453Z,62.10
2018-11-10T04:42:38.664Z,65.40
2018-11-10T04:45:08.679Z,64.60
2018-11-10T04:47:37.900Z,61.00
2018-11-10T04:50:08.371Z,60.90
2018-11-10T04:52:37.656Z,62.15
2018-11-10T04:55:07.346Z,67.20
2018-11-10T04:57:36.591Z,66.70
2018-11-10T05:00:07.597Z,63.60
2018-11-10T05:02:36.811Z,67.80
2018-11-10T05:05:06.400Z,70.17
2018-11-10T05:07:35.654Z,74.80
2018-11-10T05:10:05.517Z,67.43
2018-11-10T05:12:34.746Z,72.93
2018-11-10T05:15:04.375Z,64.10
2018-11-10T05:17:33.620Z,73.33
2018-11-10T05:20:02.892Z,67.87
2018-11-10T05:22:32.091Z,83.63
2018-11-10T05:25:01.291Z,76.30
2018-11-10T05:27:30.551Z,76.17
2018-11-10T05:30:00.083Z,86.23
2018-11-10T05:32:29.271Z,77.87
2018-11-10T05:34:58.467Z,77.70
2018-11-10T05:37:27.686Z,70.83
2018-11-10T05:39:56.878Z,76.05
2018-11-10T05:42:26.146Z,91.27
2018-11-10T05:44:55.339Z,81.40
2018-11-10T05:47:24.558Z,79.23
2018-11-10T05:49:53.779Z,92.77
2018-11-10T05:52:22.996Z,90.22
2018-11-10T05:54:52.200Z,83.03
2018-11-10T05:57:21.417Z,81.07
2018-11-10T05:59:50.583Z,81.50
2018-11-10T06:02:19.937Z,85.17
2018-11-10T06:04:49.276Z,82.30
2018-11-10T06:07:18.503Z,93.70
2018-11-10T06:09:47.839Z,84.80
2018-11-10T06:12:16.920Z,97.43
2018-11-10T06:14:46.120Z,97.78
2018-11-10T06:17:15.414Z,91.27
2018-11-10T06:19:44.600Z,80.40
2018-11-10T06:22:13.818Z,95.07
2018-11-10T06:24:42.991Z,94.77
2018-11-10T06:27:12.169Z,85.05
2018-11-10T06:29:41.803Z,96.53
2018-11-10T06:32:11.287Z,100.30
2018-11-10T06:34:41.418Z,104.95
2018-11-10T06:37:10.844Z,97.40
2018-11-10T06:39:40.053Z,97.70
2018-11-10T06:42:09.705Z,98.20
2018-11-10T06:44:38.891Z,89.70
2018-11-10T06:47:08.607Z,83.10
2018-11-10T06:49:37.780Z,94.90
2018-11-10T06:52:07.043Z,96.43
2018-11-10T06:54:36.246Z,90.77
2018-11-10T06:57:05.886Z,96.40
2018-11-10T06:59:35.124Z,79.93
2018-11-10T07:02:04.406Z,90.23
2018-11-10T07:04:33.747Z,88.20
2018-11-10T07:07:03.253Z,92.27
2018-11-10T07:09:32.473Z,94.63
2018-11-10T07:12:01.953Z,86.90
2018-11-10T07:14:31.172Z,91.97
2018-11-10T07:17:00.419Z,93.90
2018-11-10T07:19:29.718Z,85.33
2018-11-10T07:21:58.900Z,82.37
2018-11-10T07:24:28.097Z,87.37
2018-11-10T07:26:57.331Z,78.20
2018-11-10T07:29:26.539Z,94.00
2018-11-10T07:31:55.822Z,89.07
2018-11-10T07:34:24.978Z,89.53
2018-11-10T07:36:54.236Z,85.37
2018-11-10T07:39:23.434Z,94.77
2018-11-10T07:41:52.615Z,88.43
2018-11-10T07:44:21.838Z,76.73
2018-11-10T07:46:51.023Z,82.37
2018-11-10T07:49:20.284Z,88.00
2018-11-10T07:51:49.435Z,83.17
2018-11-10T07:54:18.668Z,68.70
2018-11-10T07:56:47.865Z,63.67
2018-11-10T07:59:17.195Z,66.07
2018-11-10T08:01:46.495Z,74.97
2018-11-10T08:04:15.765Z,71.80
2018-11-10T08:06:44.924Z,72.70
2018-11-10T08:09:14.123Z,67.33
2018-11-10T08:11:43.388Z,64.07
2018-11-10T08:14:12.579Z,65.93
2018-11-10T08:16:41.816Z,60.00
2018-11-10T08:19:11.415Z,64.70
2018-11-10T08:21:40.619Z,57.73
2018-11-10T08:24:10.179Z,68.00
2018-11-10T08:26:39.406Z,57.43
2018-11-10T08:29:09.835Z,60.00
2018-11-10T08:31:39.053Z,59.40
2018-11-10T08:34:09.177Z,60.03
2018-11-10T08:36:39.907Z,60.40
2018-11-10T08:39:10.514Z,59.67
2018-11-10T08:41:39.712Z,47.80
2018-11-10T08:44:09.577Z,49.63
2018-11-10T08:46:38.887Z,57.13
2018-11-10T08:49:08.258Z,50.33
2018-11-10T08:51:37.491Z,56.23
2018-11-10T08:54:06.713Z,55.60
2018-11-10T08:56:36.027Z,51.53
2018-11-10T08:59:05.311Z,49.97
2018-11-10T09:01:34.532Z,51.35
2018-11-10T09:04:03.782Z,63.10
2018-11-10T09:06:33.027Z,53.13
2018-11-10T09:09:02.201Z,60.80
2018-11-10T09:11:31.439Z,44.70
2018-11-10T09:14:00.610Z,57.83
2018-11-10T09:16:32.212Z,47.97
2018-11-10T09:19:01.435Z,49.77
2018-11-10T09:21:30.824Z,47.85
2018-11-10T09:23:59.948Z,54.90
2018-11-10T09:26:29.163Z,48.17
2018-11-10T09:28:58.352Z,60.97
2018-11-10T09:31:27.567Z,41.33
2018-11-10T09:33:56.827Z,53.00
2018-11-10T09:36:28.931Z,45.40
2018-11-10T09:38:58.063Z,52.47
2018-11-10T09:41:27.326Z,50.93
2018-11-10T09:43:56.514Z,39.27
2018-11-10T09:46:25.744Z,43.53
2018-11-10T09:48:54.968Z,43.80
2018-11-10T09:51:24.167Z,46.77
2018-11-10T09:53:53.395Z,45.17
2018-11-10T09:56:22.619Z,43.13
2018-11-10T09:58:51.807Z,39.37
2018-11-10T10:01:21.323Z,42.67
2018-11-10T10:03:50.392Z,45.10
2018-11-10T10:06:19.671Z,41.20
2018-11-10T10:08:48.945Z,46.50
2018-11-10T10:11:18.132Z,37.53
2018-11-10T10:13:47.431Z,40.43
2018-11-10T10:16:16.733Z,45.47
2018-11-10T10:18:45.905Z,37.40
2018-11-10T10:21:15.130Z,36.28
2018-11-10T10:23:44.351Z,40.03
2018-11-10T10:26:13.572Z,35.70
2018-11-10T10:28:42.994Z,43.20
2018-11-10T10:31:12.199Z,36.10
2018-11-10T10:33:41.459Z,36.90
2018-11-10T10:36:10.999Z,39.70
2018-11-10T10:38:40.186Z,43.03
2018-11-10T10:41:09.723Z,38.37
2018-11-10T10:43:38.959Z,40.13
2018-11-10T10:46:08.598Z,34.63
2018-11-10T10:48:37.864Z,30.70
2018-11-10T10:51:07.242Z,37.03
2018-11-10T10:53:36.410Z,36.80
2018-11-10T10:56:05.838Z,32.73
2018-11-10T10:58:35.010Z,37.80
2018-11-10T11:01:10.988Z,39.40
2018-11-10T11:03:46.589Z,33.60
2018-11-10T11:06:16.804Z,42.30
2018-11-10T11:08:47.691Z,31.60
2018-11-10T11:11:18.159Z,29.53
2018-11-10T11:13:48.736Z,36.80
2018-11-10T11:16:17.956Z,31.53
2018-11-10T11:18:47.212Z,34.07
2018-11-10T11:21:16.405Z,31.52
2018-11-10T11:23:45.709Z,32.33
2018-11-10T11:26:14.902Z,29.60
2018-11-10T11:28:44.180Z,30.63
2018-11-10T11:31:13.458Z,32.90
2018-11-10T11:33:42.653Z,31.80
2018-11-10T11:36:11.896Z,33.90
2018-11-10T11:38:41.129Z,30.53
2018-11-10T11:41:10.808Z,32.57
2018-11-10T11:43:40.020Z,27.20
2018-11-10T11:46:09.568Z,31.90
2018-11-10T11:48:38.878Z,33.17
2018-11-10T11:51:08.658Z,29.10
2018-11-10T11:53:37.862Z,28.43
2018-11-10T11:56:07.418Z,28.80
2018-11-10T11:58:36.641Z,29.00
2018-11-10T12:01:06.070Z,30.67
2018-11-10T12:03:35.307Z,32.73
2018-11-10T12:06:05.372Z,26.90
2018-11-10T12:08:35.989Z,26.07
2018-11-10T12:11:05.644Z,28.03
2018-11-10T12:13:34.969Z,28.90
2018-11-10T12:16:04.285Z,30.63
2018-11-10T12:18:33.623Z,28.73
2018-11-10T12:21:02.926Z,27.90
2018-11-10T12:23:32.086Z,29.70
2018-11-10T12:26:01.287Z,26.47
2018-11-10T12:28:30.507Z,28.40
2018-11-10T12:30:59.799Z,28.17
2018-11-10T12:33:28.986Z,33.05
2018-11-10T12:35:58.213Z,25.20
2018-11-10T12:38:27.466Z,26.07
2018-11-10T12:40:56.699Z,24.50
2018-11-10T12:43:28.802Z,25.13
2018-11-10T12:45:58.020Z,22.10
2018-11-10T12:48:27.835Z,24.33
2018-11-10T12:50:57.064Z,25.62
2018-11-10T12:53:26.472Z,26.47
2018-11-10T12:55:55.698Z,26.60
2018-11-10T12:58:25.016Z,20.97
2018-11-10T13:00:54.412Z,24.43
2018-11-10T13:03:23.997Z,24.00
2018-11-10T13:05:53.202Z,23.40
2018-11-10T13:08:22.386Z,23.03
2018-11-10T13:10:51.695Z,21.53
2018-11-10T13:13:20.947Z,19.33
2018-11-10T13:15:50.380Z,21.60
2018-11-10T13:18:19.659Z,21.20
2018-11-10T13:20:48.911Z,19.97
2018-11-10T13:23:18.120Z,23.27
2018-11-10T13:25:47.423Z,24.18
2018-11-10T13:28:16.619Z,20.80
2018-11-10T13:30:46.016Z,21.03
2018-11-10T13:33:15.209Z,22.77
2018-11-10T13:35:44.456Z,17.87
2018-11-10T13:38:13.806Z,19.07
2018-11-10T13:40:42.926Z,20.03
2018-11-10T13:43:12.417Z,24.33
2018-11-10T13:45:41.666Z,20.70
2018-11-10T13:48:11.352Z,21.77
2018-11-10T13:50:40.745Z,21.83
2018-11-10T13:53:10.077Z,18.67
2018-11-10T13:55:39.302Z,20.40
2018-11-10T13:58:08.857Z,19.83
2018-11-10T14:00:38.125Z,19.13
2018-11-10T14:03:07.716Z,18.27
2018-11-10T14:05:36.959Z,20.60
2018-11-10T14:08:06.265Z,20.30
2018-11-10T14:10:35.538Z,21.17
2018-11-10T14:13:05.252Z,18.40
2018-11-10T14:15:34.447Z,16.37
2018-11-10T14:18:03.668Z,19.35
2018-11-10T14:20:32.925Z,16.62
2018-11-10T14:23:02.808Z,17.57
2018-11-10T14:25:32.010Z,15.57
2018-11-10T14:28:01.211Z,20.17
2018-11-10T14:30:30.445Z,19.07
2018-11-10T14:32:59.842Z,12.03
2018-11-10T14:35:29.078Z,15.70
2018-11-10T14:37:58.338Z,14.97
2018-11-10T14:40:27.542Z,18.70
2018-11-10T14:42:56.808Z,15.30
2018-11-10T14:45:26.008Z,14.10
2018-11-10T14:47:55.296Z,13.57
2018-11-10T14:50:24.508Z,17.07
2018-11-10T14:52:53.808Z,13.70
2018-11-10T14:55:22.914Z,12.77
2018-11-10T14:57:52.163Z,15.87
2018-11-10T15:00:25.444Z,13.43
2018-11-10T15:02:54.829Z,16.30
2018-11-10T15:05:24.063Z,13.10
2018-11-10T15:07:53.257Z,14.80
2018-11-10T15:10:22.469Z,11.10
2018-11-10T15:12:51.672Z,10.17
2018-11-10T15:15:20.926Z,13.27
2018-11-10T15:17:50.270Z,14.27
2018-11-10T15:20:20.167Z,15.47
2018-11-10T15:22:49.402Z,15.30
2018-11-10T15:25:19.905Z,25.20
2018-11-10T15:27:49.068Z,19.45
2018-11-10T15:30:19.556Z,15.23
2018-11-10T15:32:49.231Z,17.70
2018-11-10T15:35:19.770Z,16.40
2018-11-10T15:37:50.096Z,17.60
2018-11-10T15:40:19.979Z,16.23
2018-11-10T15:42:49.211Z,16.23
2018-11-10T15:45:19.280Z,14.10
2018-11-10T15:47:48.551Z,14.70
2018-11-10T15:50:18.520Z,16.03
2018-11-10T15:52:48.374Z,15.65
2018-11-10T15:55:17.566Z,15.40
2018-11-10T15:57:46.809Z,13.30
2018-11-10T16:00:17.440Z,15.63
2018-11-10T16:02:46.730Z,15.57
2018-11-10T16:05:16.211Z,23.20
2018-11-10T16:07:45.431Z,21.63
2018-11-10T16:10:15.486Z,13.27
2018-11-10T16:12:45.526Z,22.42
2018-11-10T16:15:16.504Z,16.17
2018-11-10T16:17:45.730Z,14.23
2018-11-10T16:20:17.379Z,14.20
2018-11-10T16:22:47.819Z,14.70
2018-11-10T16:25:18.387Z,16.30
2018-11-10T16:27:47.786Z,16.80
2018-11-10T16:30:18.380Z,18.87
2018-11-10T16:32:48.070Z,14.70
2018-11-10T16:35:17.772Z,13.43
2018-11-10T16:37:46.952Z,14.00
2018-11-10T16:40:19.185Z,14.33
2018-11-10T16:42:48.941Z,14.37
2018-11-10T16:45:19.809Z,15.38
2018-11-10T16:47:49.015Z,14.20
2018-11-10T16:50:19.030Z,15.13
2018-11-10T16:52:48.256Z,12.40
2018-11-10T16:55:18.493Z,14.10
2018-11-10T16:57:47.666Z,13.77
2018-11-10T17:00:19.817Z,11.73
2018-11-10T17:02:49.050Z,16.37
2018-11-10T17:05:18.815Z,18.27
2018-11-10T17:07:48.009Z,15.40
2018-11-10T17:10:18.790Z,12.27
2018-11-10T17:12:48.059Z,12.97
2018-11-10T17:15:18.673Z,15.07
2018-11-10T17:17:47.979Z,14.27
2018-11-10T17:20:17.825Z,16.60
2018-11-10T17:22:47.094Z,16.50
2018-11-10T17:25:17.516Z,17.30
2018-11-10T17:27:46.722Z,13.27
2018-11-10T17:30:19.559Z,14.47
2018-11-10T17:32:48.730Z,14.73
2018-11-10T17:35:18.909Z,13.18
2018-11-10T17:37:49.149Z,13.95
2018-11-10T17:40:18.686Z,14.70
2018-11-10T17:42:47.827Z,13.67
2018-11-10T17:45:18.897Z,12.45
2018-11-10T18:02:50.991Z,12.70
2018-11-10T18:05:20.248Z,15.50
2018-11-10T18:07:49.433Z,11.80
2018-11-10T18:10:19.685Z,15.77
2018-11-10T18:12:49.387Z,12.73
2018-11-10T18:15:21.676Z,13.30
2018-11-10T18:17:50.920Z,11.87
2018-11-10T18:20:20.109Z,12.20
2018-11-10T18:22:49.314Z,12.85
2018-11-10T18:25:19.521Z,11.80
2018-11-10T18:27:48.654Z,11.13
2018-11-10T18:30:18.466Z,14.73
2018-11-10T18:32:47.827Z,11.30
2018-11-10T18:35:18.229Z,13.73
2018-11-10T18:37:47.512Z,14.10
2018-11-10T18:40:17.686Z,14.43
2018-11-10T18:42:46.951Z,13.20
2018-11-10T18:45:16.188Z,13.73
2018-11-10T18:47:45.418Z,13.07
2018-11-10T18:50:17.081Z,11.25
2018-11-10T18:52:46.288Z,16.70
2018-11-10T18:55:16.796Z,13.60
2018-11-10T18:57:46.331Z,12.23
2018-11-10T19:00:16.780Z,13.90
2018-11-10T19:02:46.102Z,10.37
2018-11-10T19:05:17.121Z,11.83
2018-11-10T19:07:46.308Z,10.07
2018-11-10T19:10:18.621Z,14.93
2018-11-10T19:12:49.035Z,10.60
2018-11-10T19:15:21.282Z,15.23
2018-11-10T19:17:50.599Z,10.57
2018-11-10T19:20:19.966Z,17.27
2018-11-10T19:22:49.957Z,10.50
2018-11-10T19:25:19.160Z,10.60
2018-11-10T19:27:48.358Z,10.67
2018-11-10T19:30:19.260Z,13.87
2018-11-10T19:32:49.382Z,9.80
2018-11-10T19:35:19.612Z,15.93
2018-11-10T19:37:49.104Z,13.73
2018-11-10T19:40:18.946Z,14.80
2018-11-10T19:42:48.233Z,14.33
2018-11-10T19:45:18.643Z,13.67
2018-11-10T19:47:47.896Z,13.53
2018-11-10T19:50:19.452Z,11.20
2018-11-10T19:52:48.531Z,15.40
2018-11-10T19:55:18.205Z,10.10
2018-11-10T19:57:47.431Z,12.63
2018-11-10T20:00:22.507Z,11.47
2018-11-10T20:02:51.847Z,10.53
2018-11-10T20:05:21.124Z,10.73
2018-11-10T20:07:50.355Z,24.33
2018-11-10T20:10:20.407Z,14.63
2018-11-10T20:12:49.597Z,13.27
2018-11-10T20:15:19.151Z,12.40
2018-11-10T20:17:48.339Z,10.77
2018-11-10T20:20:19.231Z,13.70
2018-11-10T20:22:48.431Z,8.90
2018-11-10T20:25:19.176Z,12.40
2018-11-10T20:27:48.387Z,9.23
2018-11-10T20:30:19.801Z,10.70
2018-11-10T20:32:49.202Z,7.37
2018-11-10T20:35:18.942Z,8.55
2018-11-10T20:37:48.185Z,8.03
2018-11-10T20:40:18.815Z,10.27
2018-11-10T20:42:48.047Z,8.40
2018-11-10T20:45:20.205Z,7.25
2018-11-10T20:47:49.385Z,9.17
2018-11-10T20:50:18.934Z,7.53
2018-11-10T20:52:48.135Z,7.60
2018-11-10T20:55:17.699Z,9.67
2018-11-10T20:57:47.121Z,6.03
2018-11-10T21:00:18.884Z,9.20
2018-11-10T21:02:47.967Z,6.55
2018-11-10T21:05:18.485Z,5.10
2018-11-10T21:07:47.727Z,8.47
2018-11-10T21:10:21.960Z,8.43
2018-11-10T21:12:51.536Z,5.40
2018-11-10T21:15:21.132Z,6.77
2018-11-10T21:17:50.841Z,5.83
2018-11-10T21:20:20.736Z,8.70
2018-11-10T21:22:49.884Z,7.03
2018-11-10T21:25:19.411Z,11.63
2018-11-10T21:27:48.795Z,4.40
2018-11-10T21:30:19.620Z,4.13
2018-11-10T21:32:49.048Z,5.37
2018-11-10T21:35:18.804Z,4.20
2018-11-10T21:37:47.996Z,5.57
2018-11-10T21:40:18.996Z,2.77
2018-11-10T21:42:48.237Z,3.80
2018-11-10T21:45:18.930Z,3.30
2018-11-10T21:47:48.131Z,5.20
2018-11-10T21:50:19.306Z,7.50
2018-11-10T21:52:48.534Z,4.23
2018-11-10T21:55:19.683Z,3.70
2018-11-10T21:57:49.537Z,3.83
2018-11-10T22:00:20.880Z,4.33
2018-11-10T22:02:50.411Z,3.90
2018-11-10T22:05:20.085Z,6.30
2018-11-10T22:07:49.362Z,5.87
2018-11-10T22:10:19.964Z,10.67
2018-11-10T22:12:49.226Z,4.97
2018-11-10T22:15:20.357Z,7.05
2018-11-10T22:17:49.820Z,6.13
2018-11-10T22:20:20.966Z,7.67
2018-11-10T22:22:50.220Z,6.83
2018-11-10T22:25:21.086Z,8.93
2018-11-10T22:27:51.787Z,9.33
2018-11-10T22:30:21.868Z,22.90
2018-11-10T22:32:51.319Z,13.60
2018-11-10T22:35:21.068Z,8.63
2018-11-10T22:37:50.258Z,9.20
2018-11-10T22:40:20.960Z,10.93
2018-11-10T22:42:50.196Z,12.43
2018-11-10T22:45:20.692Z,12.30
2018-11-10T22:47:50.251Z,12.27
2018-11-10T22:50:21.004Z,9.63
2018-11-10T22:52:50.259Z,11.37
2018-11-10T22:55:19.538Z,9.17
2018-11-10T22:57:48.713Z,11.63
2018-11-10T23:00:20.661Z,11.30
2018-11-10T23:02:51.188Z,9.70
2018-11-10T23:05:21.143Z,10.78
2018-11-10T23:07:50.344Z,11.43
2018-11-10T23:10:20.374Z,12.40
2018-11-10T23:12:50.415Z,8.90
2018-11-10T23:15:19.950Z,15.10
2018-11-10T23:17:49.355Z,12.10
2018-11-10T23:20:19.973Z,11.85
2018-11-10T23:22:49.247Z,13.07
2018-11-10T23:25:19.357Z,10.83
2018-11-10T23:27:48.568Z,14.38
2018-11-10T23:30:19.444Z,15.27
2018-11-10T23:32:48.666Z,12.30
2018-11-10T23:35:18.757Z,14.07
2018-11-10T23:37:48.018Z,11.97
2018-11-10T23:40:18.141Z,8.70
2018-11-10T23:42:47.337Z,9.57
2018-11-10T23:45:18.067Z,13.70
2018-11-10T23:47:47.253Z,13.17
2018-11-10T23:50:18.658Z,12.70
2018-11-10T23:52:47.876Z,7.73
2018-11-10T23:55:18.585Z,7.57
2018-11-10T23:57:47.782Z,6.67
